Terminal Aerodrome Forecast
Issued by NWS La Crosse, WI

Home | Current Version | Previous Version | Text Only | Print | Product List | Glossary On
Versions: 1 2 3 4 5 6 7 8 9 10 11 12 13 14 15 16 17 18 19 20 21 22 23 24 25 26
000
FTUS43 KARX 190525
TAFRST
TAF
KRST 190525Z 1906/2006 17011KT P6SM SCT250
     FM191500 17016G26KT P6SM BKN250
     FM191800 19022G32KT P6SM SCT150
     FM200000 19017G25KT P6SM BKN150
     FM200300 21015KT P6SM VCTS BKN050CB=

USA.gov is the U.S. government's official web portal to all federal, state and local government web resources and services.